Time;durP1;ratioP1;P1;durP2;ratioP2;P2;SDS_P1;SDS_P2;PMS_P1;PMS_P2;Temp;Humidity;BMP_temperature;BMP_pressure;BME280_temperature;BME280_humidity;BME280_pressure;Samples;Min_cycle;Max_cycle;Signal;HPM_P1;HPM_P2
2021/12/23 00:00:14;;;;;;;59.60;25.98;;;-4.00;99.90;;;;;;5078794;28;20091;-78
2021/12/23 00:02:40;;;;;;;43.00;19.33;;;-4.10;99.90;;;;;;5065776;28;20036;-78
2021/12/23 00:05:10;;;;;;;53.83;25.65;;;-4.00;99.90;;;;;;5083261;28;20025;-77
2021/12/23 00:07:36;;;;;;;55.92;25.67;;;-4.00;99.90;;;;;;5084941;28;20033;-77
2021/12/23 00:10:08;;;;;;;57.35;25.55;;;-4.00;99.90;;;;;;5049051;28;20032;-77
2021/12/23 00:12:40;;;;;;;56.65;25.77;;;-4.00;99.90;;;;;;5065397;28;20025;-77
2021/12/23 00:23:25;;;;;;;53.47;24.08;;;-3.90;99.90;;;;;;4961550;28;20015;-78
2021/12/23 00:25:53;;;;;;;55.47;24.75;;;-3.90;99.90;;;;;;4944461;28;20058;-75
2021/12/23 00:28:19;;;;;;;57.40;25.63;;;-3.90;99.90;;;;;;4961825;29;20115;-74
2021/12/23 00:30:45;;;;;;;61.53;26.33;;;-3.90;99.90;;;;;;4959682;28;20054;-77
2021/12/23 00:33:11;;;;;;;61.72;25.70;;;-3.90;99.90;;;;;;4962052;28;20027;-75
2021/12/23 00:35:37;;;;;;;62.53;25.42;;;-3.90;99.90;;;;;;4961409;29;20027;-77
2021/12/23 00:38:11;;;;;;;53.03;23.92;;;-4.00;99.90;;;;;;4966510;28;20186;-76
2021/12/23 00:40:37;;;;;;;56.47;25.33;;;-4.10;99.90;;;;;;4976497;28;20045;-76
2021/12/23 00:43:02;;;;;;;60.35;26.45;;;-4.10;99.90;;;;;;4963526;28;20078;-78
2021/12/23 00:45:28;;;;;;;56.75;24.70;;;-4.10;99.90;;;;;;4963560;28;20317;-78
2021/12/23 00:47:54;;;;;;;63.70;26.13;;;-4.10;99.90;;;;;;4980804;28;20210;-77
2021/12/23 00:50:21;;;;;;;57.10;25.95;;;-4.10;99.90;;;;;;4978386;28;20032;-78
2021/12/23 00:52:54;;;;;;;58.27;26.30;;;-4.10;99.90;;;;;;5082026;28;20042;-77
2021/12/23 00:55:21;;;;;;;58.63;25.38;;;-4.10;99.90;;;;;;5064670;28;20043;-76
2021/12/23 00:57:47;;;;;;;58.05;25.73;;;-4.10;99.90;;;;;;5064033;28;20107;-77
2021/12/23 01:00:20;;;;;;;58.70;25.27;;;-4.00;99.90;;;;;;5013970;28;20022;-78
2021/12/23 01:02:48;;;;;;;60.90;24.90;;;-4.00;99.90;;;;;;4963458;28;20038;-78
2021/12/23 01:05:17;;;;;;;52.97;24.60;;;-4.00;99.90;;;;;;4995602;28;20140;-76
2021/12/23 01:07:43;;;;;;;55.22;25.55;;;-4.00;99.90;;;;;;4981095;28;20035;-77
2021/12/23 01:10:10;;;;;;;55.55;25.30;;;-4.00;99.90;;;;;;4980496;28;20030;-76
2021/12/23 01:13:02;;;;;;;53.95;23.85;;;-4.00;99.90;;;;;;4980984;28;20023;-75
2021/12/23 01:18:00;;;;;;;60.70;26.50;;;-4.00;99.90;;;;;;4979183;28;20046;-77
2021/12/23 01:20:29;;;;;;;53.28;24.63;;;-4.00;99.90;;;;;;4979909;28;20046;-76
2021/12/23 01:23:07;;;;;;;62.42;26.50;;;-3.90;99.90;;;;;;4980141;28;20101;-77
2021/12/23 01:25:35;;;;;;;59.95;25.52;;;-3.90;99.90;;;;;;4980693;28;20213;-76
2021/12/23 01:28:02;;;;;;;57.45;25.92;;;-4.00;99.90;;;;;;4980274;28;20038;-75
2021/12/23 01:30:28;;;;;;;54.25;26.23;;;-4.00;99.90;;;;;;4979671;28;20303;-75
2021/12/23 01:32:56;;;;;;;56.85;24.65;;;-4.00;99.90;;;;;;4979965;28;20023;-77
2021/12/23 01:35:23;;;;;;;50.97;24.00;;;-4.00;99.90;;;;;;4980639;28;20098;-75
2021/12/23 01:37:49;;;;;;;57.05;27.15;;;-4.10;99.90;;;;;;4979052;28;20039;-77
2021/12/23 01:40:17;;;;;;;56.47;24.83;;;-4.00;99.90;;;;;;4979993;28;20042;-76
2021/12/23 01:42:43;;;;;;;56.13;25.33;;;-3.90;99.90;;;;;;4963093;28;20119;-76
2021/12/23 01:45:12;;;;;;;53.95;23.95;;;-3.80;99.90;;;;;;4965183;28;20058;-76
2021/12/23 01:47:40;;;;;;;51.97;23.98;;;-3.80;99.90;;;;;;4984541;28;20041;-76
2021/12/23 01:50:07;;;;;;;53.70;25.00;;;-3.80;99.90;;;;;;4980803;28;20019;-76
2021/12/23 01:52:33;;;;;;;56.25;24.55;;;-3.70;99.90;;;;;;4980539;28;20062;-76
2021/12/23 01:54:59;;;;;;;53.45;25.80;;;-3.80;99.90;;;;;;5030217;28;20376;-76
2021/12/23 01:57:30;;;;;;;52.80;24.27;;;-3.70;99.90;;;;;;4979826;28;20035;-76
2021/12/23 01:59:57;;;;;;;56.25;25.90;;;-3.70;99.90;;;;;;4979017;28;20209;-76
2021/12/23 02:02:23;;;;;;;52.63;24.50;;;-3.70;99.90;;;;;;4975623;28;20313;-76
2021/12/23 02:04:49;;;;;;;52.95;24.65;;;-3.70;99.90;;;;;;4959828;28;20038;-75
2021/12/23 02:07:15;;;;;;;51.95;23.98;;;-3.70;99.90;;;;;;4960384;28;20031;-76
2021/12/23 02:09:40;;;;;;;50.45;23.55;;;-3.70;99.90;;;;;;4960903;28;20207;-76
2021/12/23 02:12:07;;;;;;;58.70;24.98;;;-3.70;99.90;;;;;;4960165;28;20035;-76
2021/12/23 02:14:32;;;;;;;52.17;23.63;;;-3.70;99.90;;;;;;4956060;28;20334;-78
2021/12/23 02:16:58;;;;;;;50.78;24.23;;;-3.60;99.90;;;;;;4955955;28;20072;-77
2021/12/23 02:19:24;;;;;;;51.97;23.35;;;-3.70;99.90;;;;;;4973639;28;20044;-77
2021/12/23 02:21:50;;;;;;;51.70;23.75;;;-3.70;99.90;;;;;;4943731;28;20302;-76
2021/12/23 02:24:17;;;;;;;51.60;23.48;;;-3.70;99.90;;;;;;4939597;29;20031;-77
2021/12/23 02:26:43;;;;;;;50.58;23.13;;;-3.70;99.90;;;;;;4941662;29;20064;-76
2021/12/23 02:29:09;;;;;;;51.45;23.13;;;-3.70;99.90;;;;;;4943610;29;20081;-76
2021/12/23 02:31:36;;;;;;;47.85;22.25;;;-3.70;99.90;;;;;;4944447;29;20090;-77
2021/12/23 02:34:02;;;;;;;52.72;23.73;;;-3.70;99.90;;;;;;4942894;28;20032;-77
2021/12/23 02:36:30;;;;;;;52.42;23.33;;;-3.80;99.90;;;;;;4944315;29;20059;-77
2021/12/23 02:38:57;;;;;;;48.45;23.73;;;-3.80;99.90;;;;;;4943866;29;20035;-77
2021/12/23 02:41:23;;;;;;;46.30;22.65;;;-3.80;99.90;;;;;;4946339;29;20034;-77
2021/12/23 02:43:48;;;;;;;51.65;22.40;;;-3.80;99.90;;;;;;4959028;28;20210;-77
2021/12/23 02:46:18;;;;;;;46.75;23.33;;;-3.80;99.90;;;;;;4943623;29;20139;-77
2021/12/23 02:48:43;;;;;;;49.72;22.25;;;-3.80;99.90;;;;;;4959462;28;20023;-77
2021/12/23 02:51:12;;;;;;;51.42;23.58;;;-3.80;99.90;;;;;;4943772;29;20035;-76
2021/12/23 02:53:39;;;;;;;51.13;22.15;;;-3.80;99.90;;;;;;4975337;28;20046;-75
2021/12/23 02:56:08;;;;;;;52.33;23.20;;;-3.80;99.90;;;;;;4943781;29;20039;-76
2021/12/23 02:58:34;;;;;;;;;;;-3.70;99.90;;;;;;4944733;29;20474;-76
2021/12/23 03:01:04;;;;;;;51.03;22.13;;;-3.80;99.90;;;;;;4945595;29;19910;-77
2021/12/23 03:03:30;;;;;;;51.22;23.40;;;-3.80;99.90;;;;;;4963281;29;20042;-76
2021/12/23 03:05:57;;;;;;;49.28;22.75;;;-3.80;99.90;;;;;;4961508;29;20031;-77
2021/12/23 03:08:45;;;;;;;50.15;22.60;;;-3.80;99.90;;;;;;4962198;29;20046;-77
2021/12/23 03:11:14;;;;;;;55.07;25.20;;;-3.80;99.90;;;;;;4962514;28;20318;-77
2021/12/23 03:13:41;;;;;;;51.95;22.85;;;-3.80;99.90;;;;;;4964201;28;20030;-77
2021/12/23 03:16:08;;;;;;;51.13;22.65;;;-3.80;99.90;;;;;;4981839;28;20207;-75
2021/12/23 03:18:34;;;;;;;52.55;23.73;;;-3.80;99.90;;;;;;4982450;28;20027;-76
2021/12/23 03:21:01;;;;;;;55.97;24.15;;;-3.70;99.90;;;;;;4964671;28;20103;-76
2021/12/23 03:23:27;;;;;;;48.58;21.98;;;-3.70;99.90;;;;;;4980644;28;20205;-77
2021/12/23 03:25:54;;;;;;;47.42;22.88;;;-3.70;99.90;;;;;;4981961;28;20030;-76
2021/12/23 03:28:19;;;;;;;47.20;22.55;;;-3.70;99.90;;;;;;4981676;28;20101;-77
2021/12/23 03:30:46;;;;;;;48.97;22.58;;;-3.80;99.90;;;;;;4982128;28;20042;-77
2021/12/23 03:33:12;;;;;;;45.72;21.85;;;-3.80;99.90;;;;;;4964659;28;20031;-76
2021/12/23 03:35:39;;;;;;;52.78;23.55;;;-3.80;99.90;;;;;;4982233;28;20033;-78
2021/12/23 03:38:06;;;;;;;51.65;22.73;;;-3.80;99.90;;;;;;4981135;28;20109;-77
2021/12/23 03:40:32;;;;;;;49.83;21.92;;;-3.80;99.90;;;;;;4981890;28;20038;-77
2021/12/23 03:43:16;;;;;;;44.15;21.30;;;-3.70;99.90;;;;;;4963396;28;20198;-76
2021/12/23 03:45:47;;;;;;;47.13;23.02;;;-3.60;99.90;;;;;;4979499;28;20042;-78
2021/12/23 03:48:31;;;;;;;44.35;21.50;;;-3.70;99.90;;;;;;4981250;28;20034;-77
2021/12/23 03:51:27;;;;;;;46.20;21.55;;;-3.60;99.90;;;;;;4981764;28;20090;-76
2021/12/23 03:53:53;;;;;;;49.80;22.70;;;-3.60;99.90;;;;;;4981874;28;20077;-76
2021/12/23 03:56:19;;;;;;;43.30;20.13;;;-3.60;99.90;;;;;;4980968;28;20247;-77
2021/12/23 03:58:44;;;;;;;46.58;22.90;;;-3.60;99.90;;;;;;4964721;28;20065;-78
2021/12/23 04:01:19;;;;;;;47.33;21.23;;;-3.50;99.90;;;;;;4980839;28;20038;-77
2021/12/23 04:03:45;;;;;;;43.53;22.50;;;-3.60;99.90;;;;;;4964408;28;20054;-75
2021/12/23 04:06:11;;;;;;;47.25;21.85;;;-3.50;99.90;;;;;;4980913;28;20053;-77
2021/12/23 04:08:39;;;;;;;47.05;23.13;;;-3.60;99.90;;;;;;4964544;28;20367;-76
2021/12/23 04:11:05;;;;;;;43.22;21.98;;;-3.50;99.90;;;;;;4981217;28;20050;-76
2021/12/23 04:13:31;;;;;;;41.42;19.70;;;-3.60;99.90;;;;;;4981486;28;20026;-76
2021/12/23 04:15:57;;;;;;;45.03;20.77;;;-3.50;99.90;;;;;;4964879;28;20158;-76
2021/12/23 04:18:22;;;;;;;48.70;21.58;;;-3.50;99.90;;;;;;4981304;28;20038;-77
2021/12/23 04:20:54;;;;;;;42.75;20.80;;;-3.50;99.90;;;;;;4964361;28;20033;-76
2021/12/23 04:23:24;;;;;;;41.15;19.65;;;-3.60;99.90;;;;;;4981150;28;20293;-76
2021/12/23 04:25:51;;;;;;;45.78;21.00;;;-3.60;99.90;;;;;;4981388;28;20038;-76
2021/12/23 04:28:21;;;;;;;45.40;20.77;;;-3.60;99.90;;;;;;4963790;28;20428;-76
2021/12/23 04:30:48;;;;;;;44.05;20.30;;;-3.60;99.90;;;;;;4964331;28;20039;-77
2021/12/23 04:33:14;;;;;;;46.47;20.58;;;-3.50;99.90;;;;;;4981018;28;20308;-76
2021/12/23 04:35:40;;;;;;;41.10;19.25;;;-3.50;99.90;;;;;;4964291;28;20027;-77
2021/12/23 04:38:06;;;;;;;44.50;20.98;;;-3.40;99.90;;;;;;4980811;28;20038;-77
2021/12/23 04:40:37;;;;;;;39.65;19.92;;;-3.40;99.90;;;;;;4981829;28;20080;-77
2021/12/23 04:43:04;;;;;;;43.80;20.40;;;-3.30;99.90;;;;;;4991131;28;20034;-78
2021/12/23 04:45:30;;;;;;;42.60;19.30;;;-3.30;99.90;;;;;;4975500;28;20072;-78
2021/12/23 04:47:56;;;;;;;41.95;18.92;;;-3.30;99.90;;;;;;4968221;28;20031;-77
2021/12/23 04:50:22;;;;;;;43.90;19.35;;;-3.20;99.90;;;;;;4986578;28;20072;-78
2021/12/23 04:52:48;;;;;;;43.95;20.65;;;-3.30;99.90;;;;;;4964756;28;20031;-78
2021/12/23 04:55:15;;;;;;;42.58;19.33;;;-3.30;99.90;;;;;;4980558;28;20039;-78
2021/12/23 04:57:41;;;;;;;42.25;19.95;;;-3.30;99.90;;;;;;4964033;28;20030;-78
2021/12/23 05:00:12;;;;;;;40.95;19.90;;;-3.40;99.90;;;;;;4980759;28;20236;-78
2021/12/23 05:02:38;;;;;;;42.80;20.05;;;-3.40;99.90;;;;;;4963437;28;20221;-78
2021/12/23 05:05:05;;;;;;;43.45;20.05;;;-3.40;99.90;;;;;;4963228;28;20053;-78
2021/12/23 05:07:30;;;;;;;42.13;20.35;;;-3.30;99.90;;;;;;4981059;28;20092;-77
2021/12/23 05:09:56;;;;;;;41.05;19.77;;;-3.40;99.90;;;;;;4963593;28;20030;-76
2021/12/23 05:12:22;;;;;;;45.40;21.00;;;-3.40;99.90;;;;;;4963081;28;20305;-76
2021/12/23 05:14:50;;;;;;;44.45;19.38;;;-3.40;99.90;;;;;;4980370;28;20045;-77
2021/12/23 05:17:16;;;;;;;41.78;20.30;;;-3.40;99.90;;;;;;4962324;28;20038;-76
2021/12/23 05:19:42;;;;;;;41.53;20.52;;;-3.30;99.90;;;;;;4995872;28;20027;-76
2021/12/23 05:22:08;;;;;;;43.05;19.23;;;-3.30;99.90;;;;;;4962778;28;20061;-77
2021/12/23 05:24:34;;;;;;;44.60;19.60;;;-3.30;99.90;;;;;;4979432;28;20031;-77
2021/12/23 05:27:00;;;;;;;42.05;18.70;;;-3.30;99.90;;;;;;4963259;28;20035;-77
2021/12/23 05:29:25;;;;;;;41.17;20.00;;;-3.30;99.90;;;;;;4962942;28;20304;-77
2021/12/23 05:31:51;;;;;;;43.70;20.40;;;-3.30;99.90;;;;;;4980459;28;20313;-77
2021/12/23 05:34:17;;;;;;;41.72;20.08;;;-3.40;99.90;;;;;;4979754;28;20071;-77
2021/12/23 05:36:43;;;;;;;44.28;19.30;;;-3.50;99.90;;;;;;4980407;28;20120;-78
2021/12/23 05:39:09;;;;;;;47.47;20.95;;;-3.50;99.90;;;;;;4979917;28;20088;-77
2021/12/23 05:41:35;;;;;;;50.08;21.42;;;-3.50;99.90;;;;;;4980304;28;20026;-78
2021/12/23 05:44:01;;;;;;;51.08;20.42;;;-3.60;99.90;;;;;;4963220;28;20035;-78
2021/12/23 05:46:27;;;;;;;46.97;21.83;;;-3.60;99.90;;;;;;4962338;28;20094;-78
2021/12/23 05:49:00;;;;;;;41.45;20.33;;;-3.70;99.90;;;;;;4980614;28;20035;-77
2021/12/23 06:01:34;;;;;;;40.70;18.35;;;-3.60;99.90;;;;;;4920706;28;20226;-76
2021/12/23 06:04:00;;;;;;;37.20;18.10;;;-3.50;99.90;;;;;;4925285;29;20230;-78
2021/12/23 06:06:26;;;;;;;42.00;18.27;;;-3.50;99.90;;;;;;4924279;29;20028;-78
2021/12/23 06:08:52;;;;;;;44.58;19.55;;;-3.50;99.90;;;;;;4924906;28;20283;-77
2021/12/23 06:11:18;;;;;;;43.08;19.35;;;-3.60;99.90;;;;;;4924360;28;20043;-76
2021/12/23 06:13:43;;;;;;;39.45;18.23;;;-3.50;99.90;;;;;;4924780;29;20024;-78
2021/12/23 06:16:09;;;;;;;38.45;19.05;;;-3.60;99.90;;;;;;4925489;28;20107;-78
2021/12/23 06:18:38;;;;;;;40.70;19.15;;;-3.50;99.90;;;;;;4925476;29;20047;-79
2021/12/23 06:21:04;;;;;;;40.92;18.65;;;-3.30;99.90;;;;;;4924511;29;20023;-78
2021/12/23 06:23:31;;;;;;;40.80;18.75;;;-3.30;99.90;;;;;;4925193;29;20032;-77
2021/12/23 06:25:56;;;;;;;41.20;19.25;;;-3.30;99.90;;;;;;4924515;28;20027;-76
2021/12/23 06:28:22;;;;;;;47.40;20.08;;;-3.30;99.90;;;;;;4925253;29;20040;-78
2021/12/23 06:30:48;;;;;;;37.88;18.75;;;-3.30;99.90;;;;;;4925113;28;20040;-77
2021/12/23 06:33:14;;;;;;;40.17;17.50;;;-3.30;99.90;;;;;;4924097;29;20071;-78
2021/12/23 06:39:48;;;;;;;36.92;17.88;;;-3.40;99.90;;;;;;4925991;29;20047;-77
2021/12/23 06:42:33;;;;;;;;;;;;;;;;;;;;;
2021/12/23 06:48:36;;;;;;;41.47;18.80;;;-3.10;99.90;;;;;;4923028;28;20061;-77
2021/12/23 06:57:32;;;;;;;41.40;19.08;;;-3.30;99.90;;;;;;4920640;23;19946;-77
2021/12/23 07:00:37;;;;;;;40.58;18.95;;;-3.40;99.90;;;;;;4906795;28;20311;-77
2021/12/23 07:10:26;;;;;;;43.17;19.52;;;-3.50;99.90;;;;;;4907299;29;20221;-79
2021/12/23 07:12:53;;;;;;;41.58;18.67;;;-3.50;99.90;;;;;;4907186;29;20056;-78
2021/12/23 07:15:36;;;;;;;45.90;20.15;;;-3.50;99.90;;;;;;4905472;29;20280;-79
2021/12/23 07:18:01;;;;;;;41.30;19.15;;;-3.50;99.90;;;;;;4905701;29;20144;-78
2021/12/23 07:20:29;;;;;;;46.10;20.05;;;-3.40;99.90;;;;;;4906399;29;20088;-77
2021/12/23 07:22:58;;;;;;;45.83;19.77;;;-3.40;99.90;;;;;;4906344;29;20039;-77
2021/12/23 07:29:12;;;;;;;40.53;18.83;;;-3.30;99.90;;;;;;4906443;29;20022;-78
2021/12/23 07:31:38;;;;;;;44.88;19.08;;;-3.30;99.90;;;;;;4943819;28;20039;-78
2021/12/23 07:34:04;;;;;;;42.67;19.63;;;-3.30;99.90;;;;;;4946495;29;20119;-77
2021/12/23 07:36:30;;;;;;;44.28;20.38;;;-3.30;99.90;;;;;;4954414;29;20050;-76
2021/12/23 07:38:56;;;;;;;39.95;19.08;;;-3.30;99.90;;;;;;4963232;29;20039;-78
2021/12/23 07:41:26;;;;;;;44.08;20.50;;;-3.30;99.90;;;;;;4943446;29;20031;-78
2021/12/23 07:44:02;;;;;;;44.30;19.45;;;-3.20;99.90;;;;;;4949409;29;20031;-78
2021/12/23 07:46:35;;;;;;;42.67;19.98;;;-3.20;99.90;;;;;;4934590;28;20049;-77
2021/12/23 07:49:03;;;;;;;46.83;21.23;;;-3.20;99.90;;;;;;4906255;28;20051;-78
2021/12/23 07:51:34;;;;;;;45.95;20.92;;;-3.10;99.90;;;;;;4907375;28;20024;-77
2021/12/23 07:53:59;;;;;;;45.15;20.92;;;-3.10;99.90;;;;;;4914877;28;20095;-78
2021/12/23 07:56:25;;;;;;;46.53;20.88;;;-3.10;99.90;;;;;;4909986;29;20044;-78
2021/12/23 07:58:52;;;;;;;44.83;21.00;;;-3.10;99.90;;;;;;4909431;28;20048;-80
2021/12/23 08:01:18;;;;;;;41.25;19.90;;;-3.10;99.90;;;;;;4903298;28;20047;-79
2021/12/23 08:03:47;;;;;;;43.28;20.58;;;-3.10;99.90;;;;;;4905546;29;20287;-77
2021/12/23 08:10:00;;;;;;;42.22;19.90;;;-2.90;99.90;;;;;;4905417;29;20031;-77
2021/12/23 08:13:01;;;;;;;45.88;20.30;;;-2.80;99.90;;;;;;4904595;29;20093;-78
2021/12/23 08:15:33;;;;;;;45.50;21.60;;;-2.70;99.90;;;;;;4902059;28;20383;-78
2021/12/23 08:17:59;;;;;;;41.65;19.30;;;-2.60;99.90;;;;;;4886346;29;20069;-79
2021/12/23 08:20:26;;;;;;;41.15;20.25;;;-2.50;99.90;;;;;;4886640;28;20112;-79
2021/12/23 08:27:53;;;;;;;40.40;19.27;;;-2.00;99.90;;;;;;4881841;28;20064;-79
2021/12/23 08:30:20;;;;;;;43.13;19.77;;;-1.80;99.90;;;;;;4898127;28;20037;-78
2021/12/23 08:32:48;;;;;;;44.70;20.88;;;-1.70;99.90;;;;;;4904557;29;20036;-78
2021/12/23 08:35:57;;;;;;;42.53;19.73;;;-1.70;99.90;;;;;;4902858;28;20282;-78
2021/12/23 08:38:23;;;;;;;40.03;19.42;;;-1.60;99.90;;;;;;4893236;29;20044;-77
2021/12/23 08:41:30;;;;;;;40.60;20.77;;;-1.60;99.90;;;;;;4905522;29;20271;-79
2021/12/23 08:43:59;;;;;;;38.22;20.15;;;-1.50;99.90;;;;;;4888302;28;20095;-77
2021/12/23 08:46:24;;;;;;;42.72;19.42;;;-1.50;99.90;;;;;;4902515;28;20044;-80
2021/12/23 08:48:53;;;;;;;47.60;21.98;;;-1.40;99.90;;;;;;4903626;28;20055;-78
2021/12/23 08:51:38;;;;;;;44.65;20.77;;;-1.20;99.90;;;;;;4904044;29;20082;-77
2021/12/23 08:54:10;;;;;;;42.88;19.98;;;-1.20;99.90;;;;;;4905030;29;20036;-77
2021/12/23 08:56:35;;;;;;;39.50;19.48;;;-1.00;99.90;;;;;;4899653;28;20056;-78
2021/12/23 08:59:08;;;;;;;41.38;19.83;;;-0.70;99.90;;;;;;4900227;29;20085;-80
2021/12/23 09:01:34;;;;;;;40.55;19.58;;;-0.50;99.90;;;;;;4885088;28;20100;-77
2021/12/23 09:04:00;;;;;;;44.10;20.98;;;-0.40;99.90;;;;;;4900858;29;20029;-79
2021/12/23 09:10:15;;;;;;;39.05;19.00;;;-0.10;99.90;;;;;;4902168;29;20035;-78
2021/12/23 09:12:47;;;;;;;;;;;0.10;99.90;;;;;;4888221;28;20131;-77
2021/12/23 09:15:14;;;;;;;39.38;18.50;;;0.20;99.90;;;;;;4902783;28;20102;-78
2021/12/23 09:18:06;;;;;;;35.65;18.95;;;0.40;99.90;;;;;;4886511;29;20036;-77
2021/12/23 09:20:32;;;;;;;39.10;18.98;;;0.50;99.90;;;;;;4864843;29;20033;-78
2021/12/23 09:22:57;;;;;;;37.88;20.13;;;0.30;99.90;;;;;;4865363;29;20144;-77
2021/12/23 09:25:30;;;;;;;39.20;18.75;;;0.30;99.90;;;;;;4864730;29;20144;-77
2021/12/23 09:33:45;;;;;;;40.25;18.75;;;-0.10;99.90;;;;;;4864608;29;20169;-79
2021/12/23 09:36:17;;;;;;;41.08;19.85;;;0.00;99.90;;;;;;4851540;28;20069;-79
2021/12/23 09:39:13;;;;;;;38.92;19.23;;;0.00;99.90;;;;;;4869140;29;20065;-78
2021/12/23 09:46:02;;;;;;;;;;;0.00;99.90;;;;;;4868899;29;20323;-78
2021/12/23 09:48:29;;;;;;;36.97;18.27;;;0.20;99.90;;;;;;4857611;29;19929;-78
2021/12/23 09:50:59;;;;;;;37.42;18.25;;;0.30;99.90;;;;;;4867913;29;20030;-78
2021/12/23 09:53:25;;;;;;;40.00;19.88;;;0.20;99.90;;;;;;4867996;29;20120;-79
2021/12/23 09:55:52;;;;;;;38.20;18.27;;;0.20;99.90;;;;;;4873763;29;20108;-79
2021/12/23 09:58:30;;;;;;;39.08;19.58;;;0.20;99.90;;;;;;4950130;28;20047;-80
2021/12/23 10:00:58;;;;;;;;;;;0.20;99.90;;;;;;4985216;28;20222;-79
2021/12/23 10:03:28;;;;;;;38.35;17.73;;;0.30;99.90;;;;;;4986665;28;19957;-81
2021/12/23 10:05:56;;;;;;;40.95;20.48;;;0.50;99.90;;;;;;4987174;28;20029;-79
2021/12/23 10:08:28;;;;;;;44.95;19.75;;;0.60;99.90;;;;;;4985630;28;20105;-79
2021/12/23 10:31:35;;;;;;;35.67;17.88;;;1.40;99.90;;;;;;4888035;28;20053;-79
2021/12/23 10:37:14;;;;;;;37.72;17.90;;;1.50;99.90;;;;;;4906787;29;20020;-80
2021/12/23 10:40:00;;;;;;;38.70;18.00;;;1.40;99.90;;;;;;4906764;29;20064;-79
2021/12/23 10:42:27;;;;;;;38.28;18.08;;;1.50;99.90;;;;;;4898232;29;20044;-78
2021/12/23 10:45:00;;;;;;;32.80;16.40;;;1.70;99.90;;;;;;4907923;29;20045;-79
2021/12/23 10:47:31;;;;;;;40.60;18.88;;;1.80;99.90;;;;;;4905562;28;20052;-80
2021/12/23 10:50:19;;;;;;;32.97;17.70;;;1.80;99.90;;;;;;4920139;29;20041;-77
2021/12/23 10:53:05;;;;;;;40.70;18.37;;;1.90;99.90;;;;;;4902351;29;20087;-77
2021/12/23 10:58:17;;;;;;;37.17;18.02;;;2.10;99.90;;;;;;4905255;28;20033;-80
2021/12/23 11:00:53;;;;;;;35.53;16.55;;;2.10;99.90;;;;;;4904229;28;20183;-81
2021/12/23 11:03:33;;;;;;;31.70;16.85;;;2.30;99.90;;;;;;4906564;29;20025;-78
2021/12/23 11:06:08;;;;;;;36.05;16.70;;;2.50;99.90;;;;;;4921672;29;20036;-80
2021/12/23 11:08:47;;;;;;;36.55;17.05;;;2.70;99.90;;;;;;4906544;29;20063;-78
2021/12/23 11:36:36;;;;;;;30.45;16.45;;;3.40;99.90;;;;;;4904523;29;20029;-78
2021/12/23 11:39:14;;;;;;;33.05;17.02;;;3.40;99.90;;;;;;4904969;28;20052;-79
2021/12/23 11:41:49;;;;;;;36.17;18.60;;;3.50;99.90;;;;;;4905434;29;20104;-80
2021/12/23 11:44:15;;;;;;;36.75;18.00;;;3.50;99.90;;;;;;4906101;29;20406;-79
2021/12/23 11:46:51;;;;;;;36.85;18.42;;;3.60;99.90;;;;;;4903843;28;20045;-78
2021/12/23 11:49:18;;;;;;;36.15;17.73;;;3.60;99.90;;;;;;4904941;28;20039;-78
2021/12/23 11:54:26;;;;;;;33.70;17.33;;;3.90;99.90;;;;;;4904263;28;20025;-79
2021/12/23 11:57:06;;;;;;;36.40;19.00;;;4.00;99.90;;;;;;4903080;29;20059;-79
2021/12/23 12:04:00;;;;;;;39.55;19.02;;;4.00;99.90;;;;;;4904001;28;20028;-78
2021/12/23 12:06:45;;;;;;;39.85;20.88;;;4.10;99.90;;;;;;4904361;29;20282;-78
2021/12/23 12:09:19;;;;;;;38.10;18.10;;;4.10;99.90;;;;;;4905615;29;20047;-78
2021/12/23 12:12:03;;;;;;;36.33;18.88;;;4.30;99.90;;;;;;4904170;29;20059;-78
2021/12/23 12:14:34;;;;;;;32.47;17.90;;;4.50;99.90;;;;;;4919813;28;20064;-78
2021/12/23 12:17:33;;;;;;;31.48;17.27;;;4.50;99.90;;;;;;4893982;28;20055;-78
2021/12/23 12:24:10;;;;;;;30.88;16.73;;;4.60;99.90;;;;;;4886335;29;20120;-80
2021/12/23 12:27:15;;;;;;;32.35;16.27;;;4.70;99.90;;;;;;4886254;29;20390;-78
2021/12/23 12:29:41;;;;;;;28.67;14.93;;;4.80;99.90;;;;;;4886491;29;20055;-78
2021/12/23 12:32:12;;;;;;;31.83;16.92;;;5.00;99.90;;;;;;4884873;29;20041;-79
2021/12/23 12:34:40;;;;;;;32.63;17.23;;;5.10;99.90;;;;;;4900408;28;20045;-78
2021/12/23 12:37:07;;;;;;;33.42;17.60;;;5.10;99.90;;;;;;4896682;29;20068;-79
2021/12/23 12:39:46;;;;;;;29.83;16.85;;;5.10;99.90;;;;;;4904544;29;20123;-77
2021/12/23 12:42:45;;;;;;;32.45;16.90;;;4.90;99.90;;;;;;4904044;29;20231;-79
2021/12/23 12:45:22;;;;;;;30.25;15.60;;;4.90;99.90;;;;;;4903667;28;20044;-78
2021/12/23 12:47:54;;;;;;;32.45;17.55;;;4.80;99.90;;;;;;4904988;29;20079;-78
2021/12/23 12:50:27;;;;;;;30.50;16.83;;;4.60;99.90;;;;;;4904994;29;20290;-78
2021/12/23 12:52:55;;;;;;;33.78;17.10;;;4.60;99.90;;;;;;4904683;29;20040;-78
2021/12/23 12:58:11;;;;;;;30.63;15.75;;;4.40;99.90;;;;;;4939535;28;19978;-78
2021/12/23 13:01:01;;;;;;;30.00;15.55;;;4.40;99.90;;;;;;4903777;28;20212;-79
2021/12/23 13:03:27;;;;;;;33.22;17.20;;;4.40;99.90;;;;;;4905150;29;20036;-78
2021/12/23 13:05:54;;;;;;;30.15;16.30;;;4.40;99.90;;;;;;4904386;29;20032;-78
2021/12/23 13:08:29;;;;;;;30.48;16.58;;;4.50;99.90;;;;;;4903893;29;20116;-78
2021/12/23 13:11:23;;;;;;;35.78;18.90;;;4.40;99.90;;;;;;4903821;28;20036;-79
2021/12/23 13:13:59;;;;;;;30.10;16.52;;;4.40;99.90;;;;;;4904558;29;20040;-78
2021/12/23 13:16:51;;;;;;;33.00;17.95;;;4.40;99.90;;;;;;4902452;28;20113;-79
2021/12/23 13:19:21;;;;;;;35.83;17.83;;;4.40;99.90;;;;;;4890123;29;20057;-77
2021/12/23 13:21:49;;;;;;;35.63;18.27;;;4.40;99.90;;;;;;4885714;29;20235;-79
2021/12/23 13:24:18;;;;;;;35.50;19.20;;;4.30;99.90;;;;;;4900956;28;20295;-79
2021/12/23 13:26:44;;;;;;;32.60;17.40;;;4.30;99.90;;;;;;4885976;29;20025;-79
2021/12/23 13:29:11;;;;;;;35.08;17.70;;;4.40;99.90;;;;;;4885743;29;20045;-77
2021/12/23 13:31:38;;;;;;;35.35;18.13;;;4.50;99.90;;;;;;4899434;28;20072;-77
2021/12/23 13:34:19;;;;;;;46.47;21.65;;;4.40;99.90;;;;;;4900577;29;20033;-79
2021/12/23 13:36:46;;;;;;;42.88;20.92;;;4.50;99.90;;;;;;4896235;29;20028;-79
2021/12/23 13:39:27;;;;;;;62.78;25.52;;;4.60;99.90;;;;;;4902787;28;20116;-78
2021/12/23 13:41:57;;;;;;;38.42;18.45;;;4.50;99.90;;;;;;4903948;29;20063;-78
2021/12/23 13:44:40;;;;;;;40.00;17.50;;;4.40;99.90;;;;;;4904949;29;20103;-77
2021/12/23 13:47:08;;;;;;;34.25;17.65;;;4.30;99.90;;;;;;4918845;28;20272;-78
2021/12/23 13:49:35;;;;;;;33.10;17.92;;;4.40;99.90;;;;;;4903114;28;20145;-78
2021/12/23 13:52:04;;;;;;;32.40;16.73;;;4.50;99.90;;;;;;4903433;29;20033;-77
2021/12/23 13:54:53;;;;;;;35.92;17.20;;;4.60;99.90;;;;;;4903367;29;20033;-79
2021/12/23 13:57:20;;;;;;;33.50;16.05;;;4.50;99.90;;;;;;4904462;29;20335;-78
2021/12/23 13:59:47;;;;;;;30.17;15.27;;;4.50;99.90;;;;;;4898131;29;20040;-77
2021/12/23 14:02:23;;;;;;;30.15;15.40;;;4.60;99.90;;;;;;4899403;28;20049;-78
2021/12/23 14:04:56;;;;;;;29.67;16.10;;;4.60;99.90;;;;;;4883826;28;20200;-77
2021/12/23 14:07:37;;;;;;;29.17;14.93;;;4.60;99.90;;;;;;4885499;29;20249;-79
2021/12/23 14:10:07;;;;;;;27.70;14.68;;;4.60;99.90;;;;;;4885746;29;20025;-78
2021/12/23 14:12:44;;;;;;;30.45;14.93;;;4.60;99.90;;;;;;4885790;29;20040;-77
2021/12/23 14:15:24;;;;;;;30.42;15.85;;;4.60;99.90;;;;;;4885137;28;20052;-79
2021/12/23 14:23:51;;;;;;;31.38;15.52;;;4.60;99.90;;;;;;4894181;29;20069;-78
2021/12/23 14:26:21;;;;;;;55.42;27.02;;;4.70;99.90;;;;;;4872606;29;20184;-77
2021/12/23 14:28:49;;;;;;;36.80;19.13;;;4.70;99.90;;;;;;4918125;29;20037;-77
2021/12/23 14:31:33;;;;;;;32.80;15.27;;;4.80;99.90;;;;;;4888168;28;20056;-78
2021/12/23 14:34:11;;;;;;;28.90;15.30;;;4.80;99.90;;;;;;4888294;29;20057;-77
2021/12/23 14:36:50;;;;;;;33.45;16.35;;;4.90;99.90;;;;;;4898178;29;20108;-77
2021/12/23 14:39:27;;;;;;;28.35;13.73;;;4.90;99.90;;;;;;4921441;28;20080;-77
2021/12/23 14:41:56;;;;;;;41.50;18.75;;;4.80;99.90;;;;;;4901284;29;20159;-78
2021/12/23 14:44:34;;;;;;;55.20;21.40;;;4.90;99.90;;;;;;4921568;28;20086;-78
2021/12/23 14:47:13;;;;;;;69.83;23.67;;;4.90;99.90;;;;;;4906115;28;20072;-78
2021/12/23 14:52:52;;;;;;;32.03;15.27;;;4.90;99.90;;;;;;4906699;29;20028;-77
2021/12/23 14:55:21;;;;;;;30.85;15.80;;;4.90;99.90;;;;;;4905173;29;20040;-79
2021/12/23 14:57:58;;;;;;;32.47;14.80;;;4.90;99.90;;;;;;4906354;29;20044;-78
2021/12/23 15:00:40;;;;;;;29.77;15.33;;;4.90;99.90;;;;;;4906261;28;20329;-79
2021/12/23 15:03:12;;;;;;;25.23;13.30;;;5.00;99.90;;;;;;4889887;29;20492;-79
2021/12/23 15:05:40;;;;;;;24.38;13.70;;;5.00;99.90;;;;;;4890961;29;20037;-77
2021/12/23 15:08:21;;;;;;;27.42;13.60;;;5.10;99.90;;;;;;4887918;29;20025;-78
2021/12/23 15:10:55;;;;;;;25.83;13.90;;;5.20;99.90;;;;;;4886008;28;20076;-78
2021/12/23 15:13:42;;;;;;;28.95;14.20;;;5.20;99.90;;;;;;4886639;28;20033;-78